Time;durP1;ratioP1;P1;durP2;ratioP2;P2;SDS_P1;SDS_P2;PMS_P1;PMS_P2;Temp;Humidity;BMP_temperature;BMP_pressure;BME280_temperature;BME280_humidity;BME280_pressure;Samples;Min_cycle;Max_cycle;Signal;HPM_P1;HPM_P2
2022/07/30 00:02:08;;;;;;;;;;;;;;;20.25;84.21;95257.28;5094565;28;1036;-51
2022/07/30 00:04:34;;;;;;;;;;;;;;;20.25;83.96;95255.41;5094423;28;1032;-51
2022/07/30 00:07:02;;;;;;;;;;;;;;;20.01;84.02;95254.28;5094871;28;1901;-51
2022/07/30 00:09:28;;;;;;;;;;;;;;;19.95;84.50;95255.16;5094512;28;1030;-51
2022/07/30 00:11:54;;;;;;;;;;;;;;;20.13;83.88;95253.59;5094364;28;965;-51
2022/07/30 00:14:20;;;;;;;;;;;;;;;20.11;83.79;95255.69;5094282;28;971;-51
2022/07/30 00:16:46;;;;;;;;;;;;;;;20.13;84.18;95254.47;5094234;28;1273;-51
2022/07/30 00:19:12;;;;;;;;;;;;;;;20.11;84.19;95263.84;5094429;28;1046;-52
2022/07/30 00:21:38;;;;;;;;;;;;;;;20.13;84.85;95259.88;5094213;28;1036;-51
2022/07/30 00:24:05;;;;;;;;;;;;;;;20.13;84.80;95256.31;5094254;28;969;-51
2022/07/30 00:26:31;;;;;;;;;;;;;;;19.99;84.06;95256.41;5093887;28;1995;-51
2022/07/30 00:28:57;;;;;;;;;;;;;;;19.78;84.76;95257.53;5094401;28;1012;-51
2022/07/30 00:31:23;;;;;;;;;;;;;;;19.75;85.46;95260.72;5094064;28;954;-51
2022/07/30 00:33:49;;;;;;;;;;;;;;;19.96;84.36;95259.56;5094222;28;961;-51
2022/07/30 00:36:15;;;;;;;;;;;;;;;20.14;83.99;95268.84;5093896;28;1041;-52
2022/07/30 00:38:41;;;;;;;;;;;;;;;20.12;84.08;95260.09;5076085;28;1024;-51
2022/07/30 00:41:07;;;;;;;;;;;;;;;20.18;83.59;95262.75;5093681;28;1021;-51
2022/07/30 00:43:34;;;;;;;;;;;;;;;20.25;83.09;95268.97;5102869;28;1269;-51
2022/07/30 00:46:00;;;;;;;;;;;;;;;20.02;84.25;95261.41;5114245;28;1024;-52
2022/07/30 00:48:26;;;;;;;;;;;;;;;19.95;84.17;95260.59;5114198;28;1985;-51
2022/07/30 00:50:52;;;;;;;;;;;;;;;19.98;84.56;95259.34;5114116;28;988;-51
2022/07/30 00:53:18;;;;;;;;;;;;;;;19.78;84.82;95249.41;5113671;28;961;-51
2022/07/30 00:55:44;;;;;;;;;;;;;;;19.62;85.60;95255.31;5113907;28;1029;-51
2022/07/30 00:58:10;;;;;;;;;;;;;;;19.63;85.53;95255.06;5113898;28;1005;-51
2022/07/30 01:00:36;;;;;;;;;;;;;;;19.59;85.72;95253.84;5114043;28;1029;-51
2022/07/30 01:03:03;;;;;;;;;;;;;;;19.39;87.04;95251.22;5113957;28;1020;-51
2022/07/30 01:05:29;;;;;;;;;;;;;;;19.41;87.31;95256.44;5114085;28;991;-52
2022/07/30 01:07:55;;;;;;;;;;;;;;;19.53;86.41;95249.28;5113874;28;1933;-51
2022/07/30 01:10:21;;;;;;;;;;;;;;;19.55;86.39;95246.38;5113870;28;972;-51
2022/07/30 01:12:47;;;;;;;;;;;;;;;19.49;86.48;95248.06;5113629;28;1035;-51
2022/07/30 01:15:14;;;;;;;;;;;;;;;19.56;86.05;95245.31;5113752;28;1008;-51
2022/07/30 01:17:41;;;;;;;;;;;;;;;19.54;86.56;95248.25;5113508;28;1302;-51
2022/07/30 01:20:10;;;;;;;;;;;;;;;19.62;85.76;95237.16;5113826;28;969;-51
2022/07/30 01:22:41;;;;;;;;;;;;;;;19.84;84.27;95242.28;5113684;28;978;-51
2022/07/30 01:25:07;;;;;;;;;;;;;;;19.81;84.12;95249.00;5113635;28;926;-51
2022/07/30 01:27:35;;;;;;;;;;;;;;;19.65;84.37;95239.44;5113479;28;1973;-51
2022/07/30 01:30:04;;;;;;;;;;;;;;;19.54;85.81;95239.25;5113924;28;983;-51
2022/07/30 01:32:31;;;;;;;;;;;;;;;19.27;86.47;95240.22;5113474;28;1079;-51
2022/07/30 01:34:58;;;;;;;;;;;;;;;19.29;86.77;95248.09;5113761;28;1033;-51
2022/07/30 01:37:24;;;;;;;;;;;;;;;19.33;86.37;95249.38;5113451;28;995;-51
2022/07/30 01:39:52;;;;;;;;;;;;;;;19.35;86.48;95249.13;5113534;28;1044;-51
2022/07/30 01:42:18;;;;;;;;;;;;;;;19.30;86.44;95247.91;5113352;28;1036;-51
2022/07/30 01:44:45;;;;;;;;;;;;;;;19.09;87.20;95246.28;5094699;28;1224;-51
2022/07/30 01:47:12;;;;;;;;;;;;;;;18.87;88.62;95250.28;5093127;28;1999;-51
2022/07/30 01:49:40;;;;;;;;;;;;;;;18.81;88.92;95254.66;5093112;28;1047;-51
2022/07/30 01:52:07;;;;;;;;;;;;;;;18.99;88.32;95245.06;5092825;28;1103;-51
2022/07/30 01:54:34;;;;;;;;;;;;;;;19.15;86.95;95249.19;5093098;28;1021;-51
2022/07/30 01:57:01;;;;;;;;;;;;;;;19.28;86.10;95243.75;5093151;28;1052;-51
2022/07/30 01:59:27;;;;;;;;;;;;;;;19.24;86.69;95239.81;5093378;28;996;-51
2022/07/30 02:01:53;;;;;;;;;;;;;;;19.16;87.25;95245.44;5092997;28;989;-51
2022/07/30 02:04:19;;;;;;;;;;;;;;;19.24;86.55;95234.38;5093066;28;1036;-51
2022/07/30 02:06:51;;;;;;;;;;;;;;;19.12;87.01;95236.88;5096273;28;1987;-50
2022/07/30 02:09:20;;;;;;;;;;;;;;;18.88;88.08;95233.81;5096750;28;1957;-52
2022/07/30 02:14:37;;;;;;;;;;;;;;;18.68;88.96;95236.50;5096889;28;1049;-51
2022/07/30 02:17:06;;;;;;;;;;;;;;;18.69;88.97;95234.66;5096341;28;1254;-52
2022/07/30 02:19:35;;;;;;;;;;;;;;;18.92;88.14;95239.66;5096640;28;949;-52
2022/07/30 02:22:04;;;;;;;;;;;;;;;18.91;88.16;95235.28;5096389;28;1080;-51
2022/07/30 02:24:31;;;;;;;;;;;;;;;18.77;89.04;95222.78;5096723;28;974;-51
2022/07/30 02:27:02;;;;;;;;;;;;;;;18.74;88.72;95226.72;5096463;28;1914;-51
2022/07/30 02:29:29;;;;;;;;;;;;;;;18.69;88.91;95229.25;5096519;28;1063;-51
2022/07/30 02:31:57;;;;;;;;;;;;;;;18.66;88.92;95222.34;5096295;28;970;-51
2022/07/30 02:34:24;;;;;;;;;;;;;;;18.66;88.95;95224.22;5096314;28;1032;-51
2022/07/30 02:36:51;;;;;;;;;;;;;;;18.65;88.87;95219.88;5096367;28;1091;-51
2022/07/30 02:39:17;;;;;;;;;;;;;;;18.61;88.84;95222.16;5096245;28;1040;-51
2022/07/30 02:41:44;;;;;;;;;;;;;;;18.65;88.64;95218.00;5096364;28;970;-51
2022/07/30 02:44:10;;;;;;;;;;;;;;;18.71;88.62;95214.44;5110032;28;1826;-52
2022/07/30 02:46:36;;;;;;;;;;;;;;;18.67;88.73;95218.63;5116454;28;1905;-51
2022/07/30 02:49:04;;;;;;;;;;;;;;;18.78;88.07;95216.28;5116183;28;1012;-51
2022/07/30 02:51:31;;;;;;;;;;;;;;;18.73;87.89;95209.63;5116663;28;1004;-51
2022/07/30 02:53:57;;;;;;;;;;;;;;;18.79;87.85;95217.97;5116383;28;1011;-51
2022/07/30 02:56:24;;;;;;;;;;;;;;;18.80;87.78;95219.63;5116192;28;1025;-51
2022/07/30 02:58:50;;;;;;;;;;;;;;;18.83;87.88;95220.06;5116117;28;918;-51
2022/07/30 03:01:20;;;;;;;;;;;;;;;18.87;87.34;95217.78;5116094;28;1041;-51
2022/07/30 03:03:47;;;;;;;;;;;;;;;18.68;87.82;95219.44;5116321;28;965;-51
2022/07/30 03:06:13;;;;;;;;;;;;;;;18.63;88.58;95217.38;5116226;28;1023;-51
2022/07/30 03:08:44;;;;;;;;;;;;;;;18.67;88.31;95209.66;5116085;28;954;-51
2022/07/30 03:11:10;;;;;;;;;;;;;;;18.58;88.80;95225.28;5116072;28;1040;-51
2022/07/30 03:13:37;;;;;;;;;;;;;;;18.55;88.73;95212.16;5115823;28;914;-51
2022/07/30 03:16:05;;;;;;;;;;;;;;;18.60;88.67;95209.66;5115142;28;1111;-51
2022/07/30 03:18:33;;;;;;;;;;;;;;;18.61;88.34;95202.34;5115773;28;1032;-51
2022/07/30 03:21:00;;;;;;;;;;;;;;;18.58;88.22;95202.78;5116067;28;1036;-51
2022/07/30 03:23:27;;;;;;;;;;;;;;;18.64;88.32;95210.06;5115731;28;972;-51
2022/07/30 03:25:59;;;;;;;;;;;;;;;18.71;88.16;95210.91;5115743;28;1091;-51
2022/07/30 03:28:26;;;;;;;;;;;;;;;18.75;87.59;95214.84;5115404;28;1982;-52
2022/07/30 03:30:53;;;;;;;;;;;;;;;18.59;87.95;95218.84;5115920;28;1001;-52
2022/07/30 03:33:19;;;;;;;;;;;;;;;18.45;88.25;95220.69;5115550;28;1054;-52
2022/07/30 03:35:47;;;;;;;;;;;;;;;18.46;88.78;95227.78;5115575;28;1099;-52
2022/07/30 03:38:13;;;;;;;;;;;;;;;18.55;88.59;95228.41;5115355;28;1059;-51
2022/07/30 03:40:40;;;;;;;;;;;;;;;18.59;88.71;95226.09;5115424;28;1033;-52
2022/07/30 03:43:08;;;;;;;;;;;;;;;18.48;88.82;95230.28;5109980;28;1157;-52
2022/07/30 03:45:40;;;;;;;;;;;;;;;18.57;88.74;95225.47;5095234;28;1060;-51
2022/07/30 03:48:07;;;;;;;;;;;;;;;18.63;88.16;95230.91;5094738;28;1987;-51
2022/07/30 03:50:37;;;;;;;;;;;;;;;18.59;88.38;95237.78;5094946;28;1031;-52
2022/07/30 03:53:04;;;;;;;;;;;;;;;18.61;88.11;95235.69;5094807;28;1112;-52
2022/07/30 03:55:31;;;;;;;;;;;;;;;18.52;89.25;95245.06;5094694;28;970;-52
2022/07/30 03:57:59;;;;;;;;;;;;;;;18.43;89.41;95246.31;5094736;28;1004;-51
2022/07/30 04:00:26;;;;;;;;;;;;;;;18.62;88.93;95244.66;5094660;28;1036;-51
2022/07/30 04:02:52;;;;;;;;;;;;;;;18.64;88.87;95240.69;5094834;28;982;-51
2022/07/30 04:05:18;;;;;;;;;;;;;;;18.84;88.94;95242.59;5094524;28;1000;-52
2022/07/30 04:07:44;;;;;;;;;;;;;;;19.05;88.09;95252.34;5094604;28;1987;-51
2022/07/30 04:10:10;;;;;;;;;;;;;;;19.20;87.99;95250.22;5094292;28;1238;-51
2022/07/30 04:12:36;;;;;;;;;;;;;;;19.34;87.51;95252.91;5094446;28;1029;-51
2022/07/30 04:15:02;;;;;;;;;;;;;;;19.29;87.80;95251.66;5094374;28;1011;-51
2022/07/30 04:17:38;;;;;;;;;;;;;;;19.46;87.00;95245.75;5094315;28;1226;-51
2022/07/30 04:20:11;;;;;;;;;;;;;;;19.67;86.71;95255.47;5094251;28;976;-51
2022/07/30 04:22:38;;;;;;;;;;;;;;;19.77;86.20;95255.91;5094356;28;1804;-51
2022/07/30 04:25:05;;;;;;;;;;;;;;;19.53;86.89;95256.59;5093970;28;1047;-51
2022/07/30 04:27:32;;;;;;;;;;;;;;;19.55;87.47;95255.31;5093423;28;1905;-51
2022/07/30 04:29:58;;;;;;;;;;;;;;;19.68;87.63;95260.69;5093933;28;1084;-51
2022/07/30 04:32:25;;;;;;;;;;;;;;;20.05;86.06;95255.53;5094237;28;1016;-51
2022/07/30 04:34:52;;;;;;;;;;;;;;;20.38;84.70;95265.34;5076035;28;1029;-51
2022/07/30 04:37:20;;;;;;;;;;;;;;;20.46;84.92;95261.53;5093997;28;1026;-51
2022/07/30 04:39:53;;;;;;;;;;;;;;;20.29;86.58;95263.94;5093746;28;1044;-52
2022/07/30 04:42:22;;;;;;;;;;;;;;;20.28;86.89;95263.13;5094131;28;1035;-52
2022/07/30 04:44:48;;;;;;;;;;;;;;;20.43;86.86;95262.81;5113283;28;1166;-51
2022/07/30 04:47:15;;;;;;;;;;;;;;;20.65;85.57;95270.63;5114063;28;1910;-51
2022/07/30 04:49:41;;;;;;;;;;;;;;;20.72;86.25;95255.09;5113964;28;921;-52
2022/07/30 04:52:09;;;;;;;;;;;;;;;20.86;86.22;95259.34;5113971;28;1844;-51
2022/07/30 04:54:49;;;;;;;;;;;;;;;21.01;85.78;95255.47;5114230;28;1068;-51
2022/07/30 04:57:15;;;;;;;;;;;;;;;21.13;84.87;95253.66;5113981;28;1024;-51
2022/07/30 04:59:41;;;;;;;;;;;;;;;21.21;83.72;95253.38;5113949;28;1005;-51
2022/07/30 05:02:08;;;;;;;;;;;;;;;21.31;82.02;95252.88;5113872;28;1068;-51
2022/07/30 05:04:34;;;;;;;;;;;;;;;21.52;83.14;95248.06;5113814;28;1041;-52
2022/07/30 05:07:01;;;;;;;;;;;;;;;21.63;81.70;95241.88;5114093;28;1941;-54
2022/07/30 05:09:27;;;;;;;;;;;;;;;21.64;80.01;95243.50;5113775;28;1032;-51
2022/07/30 05:11:54;;;;;;;;;;;;;;;21.84;81.58;95244.09;5114140;28;825;-52
2022/07/30 05:14:21;;;;;;;;;;;;;;;21.84;80.71;95243.28;5113644;28;1043;-52
2022/07/30 05:16:48;;;;;;;;;;;;;;;22.06;79.97;95248.22;5113725;28;1092;-52
2022/07/30 05:19:14;;;;;;;;;;;;;;;22.46;76.66;95250.38;5113755;28;1052;-52
2022/07/30 05:21:40;;;;;;;;;;;;;;;22.95;74.79;95254.59;5113560;28;978;-51
2022/07/30 05:24:06;;;;;;;;;;;;;;;23.24;74.07;95253.94;5113929;28;995;-51
2022/07/30 05:26:32;;;;;;;;;;;;;;;23.06;73.13;95258.44;5113595;28;1992;-51
2022/07/30 05:28:58;;;;;;;;;;;;;;;23.21;74.26;95254.41;5095795;28;1027;-52
2022/07/30 05:31:25;;;;;;;;;;;;;;;23.29;73.56;95256.78;5113516;28;1053;-51
2022/07/30 05:33:51;;;;;;;;;;;;;;;23.33;73.53;95266.13;5113606;28;1095;-52
2022/07/30 05:36:18;;;;;;;;;;;;;;;23.12;73.10;95275.75;5113375;28;1083;-52
2022/07/30 05:38:44;;;;;;;;;;;;;;;23.11;73.19;95266.75;5113821;28;1044;-51
2022/07/30 05:41:10;;;;;;;;;;;;;;;23.33;73.68;95263.41;5117751;28;1032;-51
2022/07/30 05:43:36;;;;;;;;;;;;;;;23.83;71.59;95272.97;5108339;28;1149;-52
2022/07/30 05:46:02;;;;;;;;;;;;;;;24.41;70.13;95269.19;5097231;28;1053;-51
2022/07/30 05:48:30;;;;;;;;;;;;;;;24.84;69.46;95269.72;5097173;28;1906;-52
2022/07/30 05:50:56;;;;;;;;;;;;;;;24.46;68.99;95271.22;5096990;28;982;-51
2022/07/30 05:53:22;;;;;;;;;;;;;;;24.31;69.81;95260.81;5097280;28;1078;-51
2022/07/30 05:55:48;;;;;;;;;;;;;;;24.21;69.63;95261.47;5097166;28;1014;-51
2022/07/30 05:58:14;;;;;;;;;;;;;;;24.21;69.01;95269.66;5096985;28;1262;-50
2022/07/30 06:00:40;;;;;;;;;;;;;;;24.19;71.09;95263.59;5096928;28;1036;-50
2022/07/30 06:03:06;;;;;;;;;;;;;;;24.03;72.08;95267.09;5096835;28;1099;-50
2022/07/30 06:05:32;;;;;;;;;;;;;;;23.96;71.47;95256.34;5096976;28;1203;-50
2022/07/30 06:07:58;;;;;;;;;;;;;;;23.81;72.65;95262.31;5097042;28;1986;-51
2022/07/30 06:10:25;;;;;;;;;;;;;;;23.78;72.65;95262.75;5096537;28;1160;-51
2022/07/30 06:12:51;;;;;;;;;;;;;;;23.81;71.43;95262.31;5096760;28;1072;-52
2022/07/30 06:15:17;;;;;;;;;;;;;;;24.03;71.72;95256.19;5096695;28;1026;-51
2022/07/30 06:17:44;;;;;;;;;;;;;;;24.04;72.10;95255.13;5096371;28;1072;-52
2022/07/30 06:20:10;;;;;;;;;;;;;;;24.24;70.32;95246.47;5096494;28;1076;-51
2022/07/30 06:22:36;;;;;;;;;;;;;;;24.26;70.68;95255.25;5096623;28;1048;-52
2022/07/30 06:25:02;;;;;;;;;;;;;;;24.35;70.02;95249.16;5096451;28;1142;-52
2022/07/30 06:27:28;;;;;;;;;;;;;;;24.47;71.62;95251.84;5096386;28;1991;-52
2022/07/30 06:29:54;;;;;;;;;;;;;;;24.52;70.43;95249.22;5096561;28;1040;-52
2022/07/30 06:32:20;;;;;;;;;;;;;;;24.59;67.93;95245.50;5096161;28;988;-52
2022/07/30 06:34:46;;;;;;;;;;;;;;;24.75;68.75;95247.41;5096358;28;1057;-51
2022/07/30 06:37:12;;;;;;;;;;;;;;;24.83;69.20;95240.69;5096314;28;1137;-52
2022/07/30 06:39:38;;;;;;;;;;;;;;;25.04;69.79;95239.13;5096461;28;1028;-52
2022/07/30 06:42:04;;;;;;;;;;;;;;;25.13;68.36;95241.16;5096005;28;1025;-51
2022/07/30 06:44:30;;;;;;;;;;;;;;;25.30;67.44;95232.97;5113167;28;1979;-51
2022/07/30 06:46:56;;;;;;;;;;;;;;;25.42;65.89;95232.88;5116376;28;1909;-52
2022/07/30 06:49:22;;;;;;;;;;;;;;;25.50;65.33;95237.09;5116380;28;969;-52
2022/07/30 06:51:48;;;;;;;;;;;;;;;25.66;63.46;95233.47;5115670;28;1056;-52
2022/07/30 06:54:14;;;;;;;;;;;;;;;25.89;64.48;95234.28;5116530;28;1024;-52
2022/07/30 06:56:40;;;;;;;;;;;;;;;26.15;64.60;95232.72;5116188;28;1079;-51
2022/07/30 06:59:06;;;;;;;;;;;;;;;26.37;61.55;95231.84;5116371;28;962;-52
2022/07/30 07:01:32;;;;;;;;;;;;;;;26.49;62.98;95227.03;5116128;28;1048;-51
2022/07/30 07:03:58;;;;;;;;;;;;;;;26.51;62.49;95235.00;5116126;28;2005;-52
2022/07/30 07:06:24;;;;;;;;;;;;;;;26.53;60.63;95227.34;5115836;28;1905;-52
2022/07/30 07:08:50;;;;;;;;;;;;;;;26.56;62.20;95238.63;5116359;28;994;-52
2022/07/30 07:11:16;;;;;;;;;;;;;;;26.55;61.04;95231.47;5115842;28;1017;-52
2022/07/30 07:13:42;;;;;;;;;;;;;;;26.53;60.37;95222.69;5116167;28;1021;-52
2022/07/30 07:16:08;;;;;;;;;;;;;;;26.64;62.01;95221.72;5115794;28;1265;-52
2022/07/30 07:18:34;;;;;;;;;;;;;;;26.76;60.58;95234.44;5115748;28;1063;-52
2022/07/30 07:21:00;;;;;;;;;;;;;;;26.82;60.77;95225.16;5098116;28;1004;-52
2022/07/30 07:23:26;;;;;;;;;;;;;;;26.71;59.38;95223.41;5115600;28;1064;-52
2022/07/30 07:25:52;;;;;;;;;;;;;;;26.70;61.08;95219.03;5115924;28;1052;-51
2022/07/30 07:28:18;;;;;;;;;;;;;;;26.72;60.92;95223.16;5115431;28;1993;-51
2022/07/30 07:30:44;;;;;;;;;;;;;;;26.92;59.13;95217.03;5097588;28;1867;-52
2022/07/30 07:33:11;;;;;;;;;;;;;;;26.95;59.17;95213.72;5115315;28;1020;-52
2022/07/30 07:35:37;;;;;;;;;;;;;;;27.03;59.26;95213.28;5115820;28;1074;-52
2022/07/30 07:38:03;;;;;;;;;;;;;;;27.20;57.77;95212.25;5115428;28;1088;-52
2022/07/30 07:40:29;;;;;;;;;;;;;;;27.24;59.38;95205.16;5115950;28;1036;-52
2022/07/30 07:42:55;;;;;;;;;;;;;;;27.16;56.96;95208.41;5111631;28;1157;-51
2022/07/30 07:45:21;;;;;;;;;;;;;;;27.18;58.33;95203.47;5094976;28;1044;-51
2022/07/30 07:47:48;;;;;;;;;;;;;;;27.34;58.07;95209.91;5094706;28;1909;-51
2022/07/30 07:50:16;;;;;;;;;;;;;;;27.40;57.54;95206.94;5095032;28;1049;-52
2022/07/30 07:52:42;;;;;;;;;;;;;;;27.48;57.46;95202.03;5094882;28;1136;-52
2022/07/30 07:55:08;;;;;;;;;;;;;;;27.57;57.56;95197.69;5094897;28;1041;-51
2022/07/30 07:57:41;;;;;;;;;;;;;;;27.57;56.33;95190.28;5094730;28;1060;-52
2022/07/30 08:00:08;;;;;;;;;;;;;;;27.66;56.45;95196.09;5094688;28;1037;-52
2022/07/30 08:02:34;;;;;;;;;;;;;;;27.70;56.39;95191.72;5094519;28;1049;-51
2022/07/30 08:05:00;;;;;;;;;;;;;;;27.92;55.65;95183.28;5094899;28;968;-51
2022/07/30 08:07:26;;;;;;;;;;;;;;;27.97;54.86;95183.31;5094262;28;1958;-51
2022/07/30 08:09:53;;;;;;;;;;;;;;;27.92;55.78;95183.28;5094552;28;1021;-51
2022/07/30 08:12:19;;;;;;;;;;;;;;;28.09;55.24;95179.50;5094348;28;948;-51
2022/07/30 08:14:45;;;;;;;;;;;;;;;28.15;55.27;95187.50;5094477;28;1885;-51
2022/07/30 08:17:11;;;;;;;;;;;;;;;28.17;55.66;95181.72;5093923;28;1333;-51
2022/07/30 08:19:37;;;;;;;;;;;;;;;28.37;55.13;95178.19;5094670;28;1108;-51
2022/07/30 08:22:03;;;;;;;;;;;;;;;28.42;52.93;95169.94;5094135;28;1979;-51
2022/07/30 08:24:29;;;;;;;;;;;;;;;28.45;53.48;95174.88;5094224;28;1080;-51
2022/07/30 08:26:55;;;;;;;;;;;;;;;28.51;54.59;95175.72;5093894;28;1906;-51
2022/07/30 08:29:21;;;;;;;;;;;;;;;28.65;53.65;95174.13;5094047;28;961;-51
2022/07/30 08:31:47;;;;;;;;;;;;;;;28.77;54.24;95176.59;5094066;28;972;-48
2022/07/30 08:34:13;;;;;;;;;;;;;;;28.78;53.21;95168.06;5094104;28;968;-51
2022/07/30 08:36:39;;;;;;;;;;;;;;;28.95;53.87;95165.03;5094256;28;998;-51
2022/07/30 08:39:05;;;;;;;;;;;;;;;28.90;53.42;95166.97;5093707;28;1025;-51
2022/07/30 08:41:31;;;;;;;;;;;;;;;28.96;52.74;95174.91;5094118;28;992;-51
2022/07/30 08:43:59;;;;;;;;;;;;;;;28.85;52.72;95170.53;5106039;28;1154;-51
2022/07/30 08:46:26;;;;;;;;;;;;;;;29.05;52.73;95160.63;5114125;28;1017;-51
2022/07/30 08:48:52;;;;;;;;;;;;;;;29.20;52.51;95160.63;5113964;28;1025;-51
2022/07/30 08:51:19;;;;;;;;;;;;;;;29.27;52.37;95157.56;5114210;28;1025;-51
2022/07/30 08:53:45;;;;;;;;;;;;;;;29.33;52.01;95153.69;5114072;28;962;-51
2022/07/30 08:56:11;;;;;;;;;;;;;;;29.35;51.87;95149.56;5114090;28;960;-51
2022/07/30 08:58:37;;;;;;;;;;;;;;;29.44;53.27;95149.78;5114001;28;1035;-51
2022/07/30 09:01:04;;;;;;;;;;;;;;;29.61;52.55;95151.38;5113908;28;966;-51
2022/07/30 09:03:31;;;;;;;;;;;;;;;29.70;53.18;95138.69;5114027;28;955;-51
2022/07/30 09:05:57;;;;;;;;;;;;;;;29.81;52.50;95134.00;5113959;28;1040;-51
2022/07/30 09:08:23;;;;;;;;;;;;;;;29.87;51.12;95132.84;5113757;28;1992;-51
2022/07/30 09:10:50;;;;;;;;;;;;;;;29.87;51.50;95127.34;5113956;28;925;-51
2022/07/30 09:13:23;;;;;;;;;;;;;;;29.38;54.21;95132.47;5113566;28;1095;-51
2022/07/30 09:19:11;;;;;;;;;;;;;;;28.93;54.53;95111.34;3664795;27;2148;-51
2022/07/30 09:21:37;;;;;;;;;;;;;;;29.11;54.46;95115.47;5113844;28;1044;-52
2022/07/30 09:24:04;;;;;;;;;;;;;;;29.33;54.32;95121.47;5113493;28;1028;-48
2022/07/30 09:26:34;;;;;;;;;;;;;;;29.57;53.51;95107.06;5113921;28;1996;-48
2022/07/30 09:29:16;;;;;;;;;;;;;;;29.82;52.70;95108.06;5113556;28;1056;-48
2022/07/30 09:31:51;;;;;;;;;;;;;;;29.95;52.92;95107.44;5113815;28;1028;-49
2022/07/30 09:34:25;;;;;;;;;;;;;;;29.98;52.59;95106.88;5113457;28;1045;-49
2022/07/30 09:36:51;;;;;;;;;;;;;;;30.09;52.62;95108.47;5113888;28;967;-48
2022/07/30 09:39:33;;;;;;;;;;;;;;;30.23;51.90;95102.31;5113345;28;1013;-48
2022/07/30 09:41:59;;;;;;;;;;;;;;;30.36;51.86;95101.69;5113720;28;962;-49
2022/07/30 09:44:26;;;;;;;;;;;;;;;30.02;51.73;95098.88;5097064;28;1149;-48
2022/07/30 09:46:52;;;;;;;;;;;;;;;29.93;52.25;95106.91;5093083;28;1909;-49
2022/07/30 09:49:23;;;;;;;;;;;;;;;29.84;51.52;95100.34;5093068;28;1052;-49
2022/07/30 09:51:49;;;;;;;;;;;;;;;29.45;53.96;95101.06;5093399;28;1140;-48
2022/07/30 09:54:16;;;;;;;;;;;;;;;29.00;54.64;95098.94;5093363;28;992;-49
2022/07/30 09:56:42;;;;;;;;;;;;;;;28.72;57.00;95099.56;5093217;28;1052;-49
2022/07/30 09:59:28;;;;;;;;;;;;;;;28.58;56.65;95102.06;5092947;28;1084;-48
2022/07/30 10:01:55;;;;;;;;;;;;;;;28.49;56.63;95099.00;5092960;28;1780;-48
2022/07/30 10:04:25;;;;;;;;;;;;;;;28.49;56.60;95092.66;5092797;28;1956;-48
2022/07/30 10:19:12;;;;;;;;;;;;;;;28.89;56.34;95075.31;4202919;27;2522248;-48
2022/07/30 10:21:38;;;;;;;;;;;;;;;29.42;55.81;95066.63;5131690;28;966;-49
2022/07/30 10:24:05;;;;;;;;;;;;;;;29.76;54.54;95061.25;5131328;28;1049;-49
2022/07/30 10:26:33;;;;;;;;;;;;;;;30.07;54.49;95063.81;5131389;28;1060;-49
2022/07/30 10:29:00;;;;;;;;;;;;;;;30.32;53.90;95064.78;5131181;28;1031;-49
2022/07/30 10:31:26;;;;;;;;;;;;;;;30.42;54.14;95058.34;5131482;28;965;-49
2022/07/30 10:33:52;;;;;;;;;;;;;;;30.49;53.58;95056.91;5131268;28;1982;-50
2022/07/30 10:36:18;;;;;;;;;;;;;;;30.45;54.50;95050.31;5131174;28;1060;-49
2022/07/30 10:38:46;;;;;;;;;;;;;;;30.44;53.79;95047.84;5131191;28;969;-48
2022/07/30 10:41:24;;;;;;;;;;;;;;;30.51;53.47;95051.09;5131452;28;1055;-49
2022/07/30 10:43:50;;;;;;;;;;;;;;;30.60;54.50;95038.31;5130986;28;1134;-49
2022/07/30 10:46:34;;;;;;;;;;;;;;;30.70;54.36;95043.72;5130848;28;1064;-49
2022/07/30 10:49:11;;;;;;;;;;;;;;;30.81;54.24;95038.09;5131252;28;1053;-48
2022/07/30 10:51:48;;;;;;;;;;;;;;;30.78;51.88;95028.47;5130965;28;973;-48
2022/07/30 10:54:34;;;;;;;;;;;;;;;30.77;53.04;95021.28;5130670;28;1906;-47
2022/07/30 10:57:03;;;;;;;;;;;;;;;30.78;53.15;95025.72;5113515;28;1275;-48
2022/07/30 10:59:28;;;;;;;;;;;;;;;30.81;53.55;95002.22;5130718;28;956;-48
2022/07/30 11:01:57;;;;;;;;;;;;;;;30.94;51.53;95002.38;5130788;28;1032;-48
2022/07/30 11:04:25;;;;;;;;;;;;;;;31.02;52.54;95000.91;5130573;28;1056;-48
2022/07/30 11:06:51;;;;;;;;;;;;;;;31.00;52.23;94988.50;5130594;28;934;-48
2022/07/30 11:09:36;;;;;;;;;;;;;;;31.08;54.26;94996.16;5130973;28;1022;-48
2022/07/30 11:12:03;;;;;;;;;;;;;;;31.21;51.25;94992.69;5130489;28;1166;-48
2022/07/30 11:15:01;;;;;;;;;;;;;;;31.28;54.11;94982.09;5130554;28;1905;-48
2022/07/30 11:17:47;;;;;;;;;;;;;;;31.35;50.61;94994.72;5074620;28;1440;-48
2022/07/30 11:20:13;;;;;;;;;;;;;;;31.42;51.71;94973.88;5130256;28;1454;-48
2022/07/30 11:22:48;;;;;;;;;;;;;;;31.52;50.48;94982.06;5112491;28;965;-48
2022/07/30 11:25:29;;;;;;;;;;;;;;;31.52;45.13;94972.94;5128061;28;1016;-48
2022/07/30 11:27:55;;;;;;;;;;;;;;;31.51;47.98;94977.66;5116887;28;1029;-49
2022/07/30 11:30:21;;;;;;;;;;;;;;;31.62;47.79;94969.22;5116416;28;1163;-49
2022/07/30 11:32:47;;;;;;;;;;;;;;;31.65;44.84;94963.91;5116777;28;1048;-49
2022/07/30 11:35:13;;;;;;;;;;;;;;;31.61;45.78;94970.34;5116366;28;1902;-49
2022/07/30 11:38:06;;;;;;;;;;;;;;;31.58;45.66;94976.47;5116468;28;1064;-49
2022/07/30 11:40:33;;;;;;;;;;;;;;;31.74;45.40;94972.34;5111954;28;2016;-49
2022/07/30 11:43:18;;;;;;;;;;;;;;;31.82;43.98;94965.34;5112350;28;1212;-49
2022/07/30 11:46:04;;;;;;;;;;;;;;;31.76;44.28;94961.81;5095873;28;1011;-49
2022/07/30 11:48:30;;;;;;;;;;;;;;;31.63;43.76;94957.88;5095837;28;1257;-50
2022/07/30 11:50:56;;;;;;;;;;;;;;;31.74;43.21;94947.50;5095949;28;1054;-50
2022/07/30 11:53:23;;;;;;;;;;;;;;;31.52;46.37;94939.78;5095903;28;1039;-51
2022/07/30 11:55:56;;;;;;;;;;;;;;;31.28;45.01;94943.44;5095725;28;1960;-50
2022/07/30 11:58:24;;;;;;;;;;;;;;;31.03;44.53;94936.28;5095744;28;985;-50
2022/07/30 12:00:51;;;;;;;;;;;;;;;30.86;45.21;94950.53;5095493;28;944;-50
2022/07/30 12:03:18;;;;;;;;;;;;;;;30.72;45.86;94953.19;5095825;28;995;-50
2022/07/30 12:05:45;;;;;;;;;;;;;;;30.58;45.88;94948.66;5095412;28;1032;-50
2022/07/30 12:08:12;;;;;;;;;;;;;;;30.51;46.96;94943.50;5095607;28;986;-50
2022/07/30 12:10:38;;;;;;;;;;;;;;;30.42;47.77;94948.03;5095376;28;1032;-50
2022/07/30 12:13:08;;;;;;;;;;;;;;;30.31;48.37;94950.84;5077502;28;971;-50
2022/07/30 12:15:35;;;;;;;;;;;;;;;30.16;49.56;94949.06;5095140;28;1992;-50
2022/07/30 12:18:01;;;;;;;;;;;;;;;29.86;49.85;94954.81;5092682;28;1183;-51
2022/07/30 12:20:28;;;;;;;;;;;;;;;29.51;51.34;94942.94;5075311;28;1028;-50
2022/07/30 12:22:55;;;;;;;;;;;;;;;29.05;51.44;94940.44;5075038;28;992;-50
2022/07/30 12:25:22;;;;;;;;;;;;;;;28.58;55.16;94940.59;5074995;28;950;-50
2022/07/30 12:27:48;;;;;;;;;;;;;;;28.21;57.09;94950.03;5074736;28;949;-50
2022/07/30 12:30:15;;;;;;;;;;;;;;;27.49;61.71;94965.66;5075033;28;1068;-49
2022/07/30 12:32:42;;;;;;;;;;;;;;;26.78;64.85;94974.47;5074871;28;973;-50
2022/07/30 12:35:08;;;;;;;;;;;;;;;26.26;63.49;94974.16;5074831;28;2055;-49
2022/07/30 12:37:34;;;;;;;;;;;;;;;25.58;64.67;95001.22;5073551;28;1065;-49
2022/07/30 12:40:08;;;;;;;;;;;;;;;24.85;66.42;95006.13;5074705;28;1108;-49
2022/07/30 12:42:34;;;;;;;;;;;;;;;23.81;67.89;95054.00;5074396;28;1972;-49
2022/07/30 12:45:00;;;;;;;;;;;;;;;22.73;69.43;95100.91;5074856;28;1036;-48
2022/07/30 12:47:27;;;;;;;;;;;;;;;22.24;74.63;95092.94;5074317;28;1044;-48
2022/07/30 12:49:54;;;;;;;;;;;;;;;22.23;77.06;95069.50;5074655;28;948;-48
2022/07/30 12:52:27;;;;;;;;;;;;;;;22.36;70.97;95074.72;5074309;28;1174;-48
2022/07/30 12:54:59;;;;;;;;;;;;;;;23.44;57.38;95040.75;5074288;28;1917;-50
2022/07/30 12:57:25;;;;;;;;;;;;;;;24.00;58.31;95010.91;5074364;28;1045;-50
2022/07/30 13:00:03;;;;;;;;;;;;;;;23.73;66.10;94996.00;5074530;28;982;-50
2022/07/30 13:02:29;;;;;;;;;;;;;;;23.24;71.64;94992.94;5074097;28;1024;-49
2022/07/30 13:04:55;;;;;;;;;;;;;;;23.22;70.84;94991.50;5074275;28;1029;-49
2022/07/30 13:07:22;;;;;;;;;;;;;;;23.33;70.00;94985.19;5073976;28;977;-49
2022/07/30 13:10:04;;;;;;;;;;;;;;;23.62;69.75;94987.84;5074071;28;1036;-49
2022/07/30 13:12:30;;;;;;;;;;;;;;;23.63;70.30;94995.81;5074144;28;955;-48
2022/07/30 13:14:56;;;;;;;;;;;;;;;23.50;73.62;94996.94;5074113;28;1909;-49
2022/07/30 13:17:22;;;;;;;;;;;;;;;23.44;71.64;95006.13;5074150;28;1029;-49
2022/07/30 13:19:48;;;;;;;;;;;;;;;23.21;75.01;95030.78;5091521;28;1137;-49
2022/07/30 13:22:14;;;;;;;;;;;;;;;22.83;78.76;95004.91;5093852;28;1937;-49